createdAt,value
2018-01-23T00:02:00.492Z,80.00
2018-01-23T00:04:28.892Z,79.70
2018-01-23T00:06:57.253Z,80.00
2018-01-23T00:09:25.658Z,80.00
2018-01-23T00:11:54.025Z,79.50
2018-01-23T00:14:22.477Z,79.40
2018-01-23T00:16:50.866Z,79.50
2018-01-23T00:19:19.343Z,79.20
2018-01-23T00:22:12.928Z,79.00
2018-01-23T00:24:45.461Z,78.90
2018-01-23T00:27:13.885Z,79.10
2018-01-23T00:29:42.580Z,79.10
2018-01-23T00:32:10.961Z,78.70
2018-01-23T00:34:40.226Z,79.70
2018-01-23T00:37:08.585Z,78.70
2018-01-23T00:39:37.181Z,78.70
2018-01-23T00:42:05.540Z,78.80
2018-01-23T00:44:33.900Z,79.00
2018-01-23T00:47:03.048Z,79.10
2018-01-23T00:49:31.422Z,78.90
2018-01-23T00:51:59.845Z,79.90
2018-01-23T00:54:28.206Z,79.30
2018-01-23T00:56:56.565Z,79.60
2018-01-23T00:59:24.949Z,79.80
2018-01-23T01:01:54.372Z,79.80
2018-01-23T01:04:24.511Z,79.80
2018-01-23T01:06:54.103Z,80.10
2018-01-23T01:09:22.466Z,80.00
2018-01-23T01:11:50.854Z,80.20
2018-01-23T01:14:20.670Z,80.50
2018-01-23T01:17:13.477Z,80.80
2018-01-23T01:20:06.946Z,80.90
2018-01-23T01:23:01.259Z,81.10
2018-01-23T01:25:31.922Z,81.20
2018-01-23T01:28:02.162Z,81.40
2018-01-23T01:30:30.602Z,81.40
2018-01-23T01:32:58.988Z,81.30
2018-01-23T01:35:28.145Z,80.90
2018-01-23T01:37:56.505Z,80.80
2018-01-23T01:40:25.093Z,80.80
2018-01-23T01:42:53.484Z,80.80
2018-01-23T01:45:21.847Z,80.50
2018-01-23T01:47:50.225Z,80.50
2018-01-23T01:50:18.585Z,80.30
2018-01-23T01:52:46.966Z,80.30
2018-01-23T01:55:15.376Z,80.10
2018-01-23T01:57:43.777Z,79.60
2018-01-23T02:00:12.136Z,79.40
2018-01-23T02:02:40.525Z,79.50
2018-01-23T02:05:08.908Z,79.60
2018-01-23T02:07:37.270Z,79.40
2018-01-23T02:10:05.834Z,79.40
2018-01-23T02:12:34.193Z,79.40
2018-01-23T02:15:03.322Z,79.50
2018-01-23T02:17:31.705Z,79.50
2018-01-23T02:20:00.080Z,79.70
2018-01-23T02:22:28.479Z,79.30
2018-01-23T02:24:56.841Z,79.40
2018-01-23T02:27:25.201Z,79.50
2018-01-23T02:29:53.581Z,79.00
2018-01-23T02:32:21.947Z,78.70
2018-01-23T02:34:50.365Z,78.60
2018-01-23T02:37:18.831Z,78.20
2018-01-23T02:39:47.201Z,78.20
2018-01-23T02:42:15.607Z,77.70
2018-01-23T02:44:44.740Z,78.20
2018-01-23T02:47:14.072Z,77.50
2018-01-23T02:49:42.429Z,77.50
2018-01-23T02:52:11.548Z,77.40
2018-01-23T02:54:39.921Z,77.50
2018-01-23T02:57:08.278Z,77.40
2018-01-23T02:59:38.120Z,77.70
2018-01-23T03:02:06.476Z,77.70
2018-01-23T03:04:34.838Z,78.10
2018-01-23T03:07:03.984Z,77.80
2018-01-23T03:09:32.341Z,77.80
2018-01-23T03:12:00.746Z,77.90
2018-01-23T03:14:29.104Z,78.00
2018-01-23T03:16:57.493Z,78.20
2018-01-23T03:19:25.881Z,78.20
2018-01-23T03:21:54.245Z,78.40
2018-01-23T03:24:22.641Z,78.60
2018-01-23T03:26:51.002Z,78.80
2018-01-23T03:29:19.366Z,78.70
2018-01-23T03:31:47.754Z,78.80
2018-01-23T03:34:16.119Z,78.40
2018-01-23T03:36:44.811Z,78.40
2018-01-23T03:39:13.174Z,78.50
2018-01-23T03:41:41.533Z,78.20
2018-01-23T03:44:10.685Z,77.70
2018-01-23T03:46:39.043Z,77.60
2018-01-23T03:49:07.833Z,77.30
2018-01-23T03:51:36.197Z,77.00
2018-01-23T03:54:04.558Z,76.50
2018-01-23T03:56:33.708Z,75.90
2018-01-23T03:59:02.066Z,75.80
2018-01-23T04:01:30.476Z,75.90
2018-01-23T04:03:58.840Z,75.80
2018-01-23T04:06:27.200Z,75.00
2018-01-23T04:08:55.580Z,75.00
2018-01-23T04:11:23.932Z,73.50
2018-01-23T04:13:52.320Z,72.70
2018-01-23T04:16:20.675Z,72.00
2018-01-23T04:18:49.793Z,69.30
2018-01-23T04:21:18.256Z,69.20
2018-01-23T04:23:47.378Z,68.70
2018-01-23T04:26:16.165Z,68.60
2018-01-23T04:28:44.520Z,68.30
2018-01-23T04:31:13.636Z,68.20
2018-01-23T04:33:42.021Z,68.20
2018-01-23T04:36:10.380Z,68.60
2018-01-23T04:38:38.976Z,68.80
2018-01-23T04:41:07.329Z,68.40
2018-01-23T04:43:37.014Z,68.70
2018-01-23T04:46:05.951Z,68.60
2018-01-23T04:48:34.785Z,68.90
2018-01-23T04:51:03.884Z,69.40
2018-01-23T04:53:32.624Z,69.80
2018-01-23T04:56:01.435Z,70.30
2018-01-23T04:58:32.256Z,70.80
2018-01-23T05:01:01.604Z,71.40
2018-01-23T05:03:30.888Z,71.50
2018-01-23T05:05:59.686Z,71.80
2018-01-23T05:08:28.582Z,71.80
2018-01-23T05:10:56.963Z,72.00
2018-01-23T05:13:25.321Z,71.80
2018-01-23T05:15:53.676Z,72.00
2018-01-23T05:18:22.048Z,72.10
2018-01-23T05:20:50.400Z,72.30
2018-01-23T05:23:19.724Z,72.80
2018-01-23T05:25:48.083Z,72.80
2018-01-23T05:28:16.493Z,72.80
2018-01-23T05:30:44.876Z,73.10
2018-01-23T05:33:13.241Z,73.20
2018-01-23T05:35:41.661Z,73.30
2018-01-23T05:38:11.528Z,73.40
2018-01-23T05:40:39.899Z,73.30
2018-01-23T05:43:08.280Z,73.40
2018-01-23T05:45:36.652Z,73.30
2018-01-23T05:50:54.315Z,73.20
2018-01-23T05:53:22.900Z,73.40
2018-01-23T05:55:51.311Z,73.50
2018-01-23T05:58:19.649Z,73.30
2018-01-23T06:00:48.023Z,73.30
2018-01-23T06:03:16.376Z,73.30
2018-01-23T06:05:45.537Z,73.20
2018-01-23T06:08:13.902Z,73.20
2018-01-23T06:10:42.277Z,73.50
2018-01-23T06:13:10.657Z,73.60
2018-01-23T06:15:39.009Z,73.30
2018-01-23T06:18:07.592Z,73.60
2018-01-23T06:20:35.949Z,73.80
2018-01-23T06:23:05.071Z,74.10
2018-01-23T06:25:33.448Z,74.00
2018-01-23T06:28:01.802Z,74.00
2018-01-23T06:30:30.953Z,74.30
2018-01-23T06:32:59.309Z,74.30
2018-01-23T06:35:27.670Z,74.30
2018-01-23T06:37:56.101Z,74.30
2018-01-23T06:40:24.461Z,74.20
2018-01-23T06:42:52.872Z,74.20
2018-01-23T06:45:21.227Z,74.30
2018-01-23T06:47:49.592Z,74.20
2018-01-23T06:50:17.972Z,74.40
2018-01-23T06:52:46.334Z,74.40
2018-01-23T06:55:14.913Z,74.40
2018-01-23T06:57:43.281Z,74.50
2018-01-23T07:00:11.637Z,74.50
2018-01-23T07:02:40.788Z,74.50
2018-01-23T07:05:09.153Z,74.50
2018-01-23T07:07:37.641Z,74.50
2018-01-23T07:10:06.001Z,74.80
2018-01-23T07:12:34.356Z,74.80
2018-01-23T07:15:03.508Z,74.60
2018-01-23T07:17:31.861Z,74.60
2018-01-23T07:20:00.410Z,74.60
2018-01-23T07:22:29.533Z,74.80
2018-01-23T07:24:57.888Z,74.70
2018-01-23T07:27:26.293Z,74.70
2018-01-23T07:29:54.656Z,74.60
2018-01-23T07:32:23.246Z,74.90
2018-01-23T07:34:51.601Z,74.90
2018-01-23T07:37:20.728Z,75.10
2018-01-23T07:39:49.104Z,75.10
2018-01-23T07:42:17.464Z,75.30
2018-01-23T07:44:45.960Z,75.30
2018-01-23T07:47:14.333Z,75.70
2018-01-23T07:49:42.689Z,75.70
2018-01-23T07:52:11.858Z,76.00
2018-01-23T07:54:40.218Z,76.00
2018-01-23T07:57:08.770Z,76.30
2018-01-23T07:59:37.221Z,76.60
2018-01-23T08:02:06.350Z,76.70
2018-01-23T08:04:34.769Z,76.60
2018-01-23T08:07:03.920Z,76.70
2018-01-23T08:09:32.602Z,76.70
2018-01-23T08:12:00.963Z,76.60
2018-01-23T08:14:30.089Z,76.50
2018-01-23T08:16:58.470Z,76.50
2018-01-23T08:19:26.829Z,76.10
2018-01-23T08:21:55.223Z,75.80
2018-01-23T08:24:23.586Z,75.80
2018-01-23T08:26:51.942Z,76.00
2018-01-23T08:29:21.100Z,76.10
2018-01-23T08:31:49.515Z,76.10
2018-01-23T08:34:18.954Z,75.90
2018-01-23T08:36:47.337Z,75.90
2018-01-23T08:39:15.972Z,75.90
2018-01-23T08:41:45.116Z,75.40
2018-01-23T08:44:13.480Z,75.40
2018-01-23T08:46:42.077Z,75.10
2018-01-23T08:49:10.429Z,75.20
2018-01-23T08:51:38.784Z,74.80
2018-01-23T08:54:07.177Z,74.90
2018-01-23T08:56:36.300Z,74.70
2018-01-23T08:59:04.886Z,74.70
2018-01-23T09:01:33.244Z,74.40
2018-01-23T09:04:01.597Z,74.40
2018-01-23T09:06:29.977Z,74.60
2018-01-23T09:08:58.340Z,75.10
2018-01-23T09:11:26.877Z,74.70
2018-01-23T09:13:55.320Z,74.60
2018-01-23T09:16:24.833Z,74.60
2018-01-23T09:18:53.981Z,74.60
2018-01-23T09:21:22.337Z,74.60
2018-01-23T09:23:50.753Z,74.40
2018-01-23T09:26:19.112Z,74.20
2018-01-23T09:28:47.464Z,74.00
2018-01-23T09:31:15.842Z,73.70
2018-01-23T09:33:44.198Z,73.80
2018-01-23T09:36:13.381Z,73.70
2018-01-23T09:38:41.740Z,73.70
2018-01-23T09:41:10.101Z,73.90
2018-01-23T09:43:38.483Z,73.70
2018-01-23T09:46:06.928Z,73.50
2018-01-23T09:48:35.525Z,73.60
2018-01-23T09:51:03.889Z,73.00
2018-01-23T09:53:33.114Z,72.70
2018-01-23T09:56:01.492Z,72.80
2018-01-23T09:58:29.850Z,72.90
2018-01-23T10:00:58.448Z,72.50
2018-01-23T10:03:26.805Z,72.20
2018-01-23T10:05:55.164Z,72.10
2018-01-23T10:08:24.306Z,71.80
2018-01-23T10:10:52.657Z,71.80
2018-01-23T10:13:21.254Z,72.20
2018-01-23T10:15:49.601Z,71.40
2018-01-23T10:18:18.734Z,70.90
2018-01-23T10:20:47.162Z,70.80
2018-01-23T10:23:15.530Z,71.00
2018-01-23T10:25:44.165Z,71.40
2018-01-23T10:28:12.516Z,70.50
2018-01-23T10:30:41.684Z,70.40
2018-01-23T10:33:10.045Z,70.40
2018-01-23T10:35:38.397Z,70.50
2018-01-23T10:38:06.787Z,70.10
2018-01-23T10:40:35.161Z,69.90
2018-01-23T10:43:03.516Z,70.00
2018-01-23T10:45:31.891Z,69.60
2018-01-23T10:48:00.251Z,69.60
2018-01-23T10:50:30.526Z,69.60
2018-01-23T10:52:59.818Z,69.80
2018-01-23T10:55:28.183Z,69.80
2018-01-23T10:57:56.565Z,70.30
2018-01-23T11:00:24.928Z,70.00
2018-01-23T11:02:53.316Z,69.90
2018-01-23T11:05:21.716Z,69.80
2018-01-23T11:07:50.118Z,70.00
2018-01-23T11:10:18.476Z,69.80
2018-01-23T11:12:46.840Z,70.30
2018-01-23T11:15:15.221Z,70.30
2018-01-23T11:17:43.580Z,70.30
2018-01-23T11:20:12.006Z,70.60
2018-01-23T11:22:40.366Z,70.30
2018-01-23T11:25:08.720Z,70.00
2018-01-23T11:27:37.097Z,70.20
2018-01-23T11:30:05.448Z,70.30
2018-01-23T11:32:34.898Z,70.10
2018-01-23T11:35:03.261Z,70.10
2018-01-23T11:37:31.632Z,69.30
2018-01-23T11:40:00.012Z,69.80
2018-01-23T11:42:28.374Z,68.70
2018-01-23T11:44:57.813Z,68.10
2018-01-23T11:47:26.173Z,68.10
2018-01-23T11:49:54.524Z,68.10
2018-01-23T11:52:23.670Z,68.00
2018-01-23T11:54:52.036Z,68.00
2018-01-23T11:57:20.396Z,67.90
2018-01-23T11:59:48.774Z,67.70
2018-01-23T12:02:17.152Z,67.90
2018-01-23T12:04:45.528Z,67.80
2018-01-23T12:07:13.993Z,67.80
2018-01-23T12:09:43.124Z,67.70
2018-01-23T12:12:11.497Z,67.70
2018-01-23T12:14:39.853Z,67.70
2018-01-23T12:17:09.385Z,67.50
2018-01-23T12:19:37.741Z,67.50
2018-01-23T12:22:06.865Z,67.30
2018-01-23T12:24:35.246Z,67.30
2018-01-23T12:27:03.600Z,67.30
2018-01-23T12:29:32.196Z,67.60
2018-01-23T12:32:00.550Z,66.60
2018-01-23T12:34:29.679Z,66.70
2018-01-23T12:36:58.058Z,66.70
2018-01-23T12:39:26.428Z,66.60
2018-01-23T12:41:55.088Z,65.70
2018-01-23T12:44:24.205Z,65.90
2018-01-23T12:46:52.565Z,65.90
2018-01-23T12:49:21.798Z,66.10
2018-01-23T12:51:50.148Z,66.10
2018-01-23T12:54:18.748Z,65.90
2018-01-23T12:56:47.100Z,65.50
2018-01-23T12:59:16.227Z,66.20
2018-01-23T13:01:44.668Z,66.10
2018-01-23T13:04:13.792Z,66.30
2018-01-23T13:06:42.699Z,66.30
2018-01-23T13:09:11.059Z,65.80
2018-01-23T13:11:39.417Z,65.90
2018-01-23T13:14:08.563Z,66.20
2018-01-23T13:16:36.920Z,66.20
2018-01-23T13:19:05.502Z,66.40
2018-01-23T13:21:33.856Z,66.00
2018-01-23T13:24:02.213Z,66.20
2018-01-23T13:26:31.512Z,66.30
2018-01-23T13:28:59.869Z,66.30
2018-01-23T13:31:28.289Z,66.50
2018-01-23T13:33:57.413Z,65.50
2018-01-23T13:36:25.841Z,65.50
2018-01-23T13:38:54.221Z,65.60
2018-01-23T13:41:22.581Z,65.70
2018-01-23T13:43:51.060Z,65.90
2018-01-23T13:46:19.396Z,66.30
2018-01-23T13:48:47.756Z,66.70
2018-01-23T13:51:16.924Z,66.30
2018-01-23T13:53:45.281Z,66.30
2018-01-23T13:56:13.849Z,66.20
2018-01-23T13:58:42.200Z,65.80
2018-01-23T14:01:10.553Z,65.70
2018-01-23T14:03:39.697Z,66.60
2018-01-23T14:06:08.062Z,66.60
2018-01-23T14:08:36.861Z,66.70
2018-01-23T14:11:05.228Z,66.40
2018-01-23T14:13:33.581Z,66.50
2018-01-23T14:16:02.732Z,66.40
2018-01-23T14:18:31.096Z,66.40
2018-01-23T14:20:59.580Z,67.10
2018-01-23T14:23:27.932Z,66.00
2018-01-23T14:25:56.289Z,66.30
2018-01-23T14:28:25.432Z,66.30
2018-01-23T14:30:53.789Z,66.20
2018-01-23T14:33:22.188Z,66.00
2018-01-23T14:35:50.545Z,66.00
2018-01-23T14:38:18.900Z,66.60
2018-01-23T14:40:48.044Z,66.20
2018-01-23T14:43:16.417Z,66.20
2018-01-23T14:45:45.189Z,66.50
2018-01-23T14:48:13.540Z,67.40
2018-01-23T14:50:42.664Z,66.00
2018-01-23T14:53:11.061Z,66.00
2018-01-23T14:55:39.419Z,66.10
2018-01-23T14:58:08.005Z,66.50
2018-01-23T15:00:36.410Z,66.50
2018-01-23T15:03:04.765Z,66.30
2018-01-23T15:05:33.140Z,66.30
2018-01-23T15:08:01.524Z,66.30
2018-01-23T15:10:30.292Z,66.70
2018-01-23T15:12:58.651Z,66.80
2018-01-23T15:15:28.140Z,67.50
2018-01-23T15:17:56.553Z,66.70
2018-01-23T15:20:24.911Z,66.80
2018-01-23T15:22:54.362Z,66.10
2018-01-23T15:25:22.749Z,66.10
2018-01-23T15:27:51.116Z,66.30
2018-01-23T15:30:19.514Z,66.00
2018-01-23T15:32:47.869Z,66.40
2018-01-23T15:35:16.267Z,66.70
2018-01-23T15:37:44.632Z,66.70
2018-01-23T15:40:12.984Z,66.60
2018-01-23T15:42:41.380Z,66.60
2018-01-23T15:45:09.869Z,66.70
2018-01-23T15:47:38.436Z,67.10
2018-01-23T15:50:06.809Z,67.40
2018-01-23T15:52:35.167Z,68.00
2018-01-23T15:55:04.320Z,69.50
2018-01-23T15:57:32.681Z,68.80
2018-01-23T16:00:01.297Z,69.00
2018-01-23T16:02:29.765Z,68.70
2018-01-23T16:04:58.145Z,69.00
2018-01-23T16:07:26.539Z,69.40
2018-01-23T16:09:55.188Z,69.50
2018-01-23T16:12:23.606Z,69.60
2018-01-23T16:14:52.061Z,69.50
2018-01-23T16:17:20.701Z,70.90
2018-01-23T16:19:49.066Z,69.70
2018-01-23T16:22:18.191Z,69.80
2018-01-23T16:24:46.609Z,69.80
2018-01-23T16:27:14.960Z,69.90
2018-01-23T16:29:43.376Z,70.00
2018-01-23T16:32:11.737Z,70.10
2018-01-23T16:34:40.097Z,70.10
2018-01-23T16:37:08.540Z,71.00
2018-01-23T16:39:36.905Z,71.40
2018-01-23T16:42:06.244Z,70.30
2018-01-23T16:44:34.608Z,70.30
2018-01-23T16:47:02.972Z,70.00
2018-01-23T16:49:33.088Z,70.00
2018-01-23T16:52:02.293Z,70.00
2018-01-23T16:54:33.136Z,70.00
2018-01-23T16:57:01.529Z,70.70
2018-01-23T16:59:30.014Z,69.90
2018-01-23T17:01:58.822Z,70.10
2018-01-23T17:04:27.488Z,70.10
2018-01-23T17:06:56.306Z,70.30
2018-01-23T17:09:25.482Z,69.90
2018-01-23T17:11:53.849Z,69.90
2018-01-23T17:14:22.559Z,70.00
2018-01-23T17:16:51.442Z,70.40
2018-01-23T17:19:20.165Z,70.60
2018-01-23T17:21:49.473Z,70.60
2018-01-23T17:24:18.658Z,70.70
2018-01-23T17:26:47.764Z,70.60
2018-01-23T17:29:16.551Z,71.10
2018-01-23T17:31:45.703Z,71.50
2018-01-23T17:34:14.515Z,71.90
2018-01-23T17:36:43.236Z,72.70
2018-01-23T17:39:12.269Z,73.00
2018-01-23T17:41:41.097Z,73.60
2018-01-23T17:44:10.266Z,73.60
2018-01-23T17:46:39.806Z,73.80
2018-01-23T17:49:09.710Z,73.70
2018-01-23T17:51:39.297Z,73.80
2018-01-23T17:54:07.687Z,73.80
2018-01-23T17:56:36.072Z,73.70
2018-01-23T17:59:04.506Z,73.60
2018-01-23T18:01:33.258Z,73.50
2018-01-23T18:04:02.027Z,73.60
2018-01-23T18:06:30.398Z,73.50
2018-01-23T18:08:59.063Z,73.40
2018-01-23T18:11:27.537Z,73.50
2018-01-23T18:13:56.544Z,73.70
2018-01-23T18:16:25.294Z,74.00
2018-01-23T18:18:53.877Z,73.90
2018-01-23T18:21:22.406Z,73.80
2018-01-23T18:23:50.776Z,73.80
2018-01-23T18:26:19.773Z,73.80
2018-01-23T18:28:48.439Z,73.90
2018-01-23T18:31:17.112Z,73.80
2018-01-23T18:33:46.084Z,73.80
2018-01-23T18:36:14.905Z,73.80
2018-01-23T18:38:44.346Z,73.30
2018-01-23T18:41:12.928Z,73.20
2018-01-23T18:43:42.497Z,73.10
2018-01-23T18:46:11.281Z,72.80
2018-01-23T18:48:40.730Z,72.30
2018-01-23T18:51:10.110Z,71.90
2018-01-23T18:53:39.491Z,71.60
2018-01-23T18:56:08.232Z,71.60
2018-01-23T18:58:37.475Z,71.50
2018-01-23T19:01:06.577Z,71.60
2018-01-23T19:03:35.582Z,71.50
2018-01-23T19:06:04.920Z,71.60
2018-01-23T19:08:33.545Z,71.60
2018-01-23T19:11:02.338Z,71.50
2018-01-23T19:13:31.012Z,72.10
2018-01-23T19:15:59.711Z,71.10
2018-01-23T19:18:28.440Z,71.20
2018-01-23T19:20:57.801Z,71.40
2018-01-23T19:23:26.380Z,71.50
2018-01-23T19:25:55.680Z,70.70
2018-01-23T19:28:24.632Z,70.60
2018-01-23T19:30:53.216Z,70.30
2018-01-23T19:33:22.502Z,70.50
2018-01-23T19:35:51.447Z,70.60
2018-01-23T19:38:21.185Z,70.80
2018-01-23T19:40:50.640Z,71.10
2018-01-23T19:43:20.089Z,71.40
2018-01-23T19:45:49.806Z,71.40
2018-01-23T19:48:19.804Z,71.80
2018-01-23T19:50:49.819Z,72.00
2018-01-23T19:53:19.886Z,73.30
2018-01-23T19:55:49.680Z,72.90
2018-01-23T19:58:19.389Z,73.40
2018-01-23T20:00:48.346Z,73.40
2018-01-23T20:03:17.533Z,73.20
2018-01-23T20:05:46.683Z,73.70
2018-01-23T20:08:16.034Z,73.90
2018-01-23T20:10:44.742Z,74.20
2018-01-23T20:13:15.247Z,74.30
2018-01-23T20:15:43.834Z,74.30
2018-01-23T20:18:12.677Z,74.40
2018-01-23T20:20:41.528Z,74.70
2018-01-23T20:23:11.461Z,74.80
2018-01-23T20:25:41.630Z,74.80
2018-01-23T20:28:10.533Z,74.80
2018-01-23T20:30:39.118Z,75.00
2018-01-23T20:33:07.950Z,75.00
2018-01-23T20:35:37.666Z,75.00
2018-01-23T20:38:06.814Z,75.00
2018-01-23T20:40:35.922Z,75.10
2018-01-23T20:43:05.553Z,75.20
2018-01-23T20:45:34.738Z,75.40
2018-01-23T20:48:04.245Z,75.70
2018-01-23T20:50:32.808Z,75.70
2018-01-23T20:53:01.486Z,75.50
2018-01-23T20:55:33.675Z,75.50
2018-01-23T20:58:03.158Z,75.80
2018-01-23T21:00:31.738Z,75.80
2018-01-23T21:03:00.160Z,75.60
2018-01-23T21:05:29.386Z,75.40
2018-01-23T21:07:58.541Z,75.80
2018-01-23T21:10:27.700Z,74.60
2018-01-23T21:12:56.664Z,74.60
2018-01-23T21:15:25.656Z,74.50
2018-01-23T21:17:55.266Z,74.30
2018-01-23T21:20:24.891Z,73.80
2018-01-23T21:22:53.810Z,73.80
2018-01-23T21:25:22.862Z,73.60
2018-01-23T21:27:52.715Z,73.50
2018-01-23T21:30:21.802Z,73.40
2018-01-23T21:32:52.739Z,73.50
2018-01-23T21:35:21.582Z,73.60
2018-01-23T21:37:50.894Z,73.50
2018-01-23T21:40:19.559Z,73.60
2018-01-23T21:42:48.576Z,73.60
2018-01-23T21:45:19.057Z,73.70
2018-01-23T21:47:47.737Z,73.60
2018-01-23T21:50:16.481Z,74.10
2018-01-23T21:52:45.500Z,74.20
2018-01-23T21:55:15.316Z,74.20
2018-01-23T21:57:43.717Z,74.00
2018-01-23T22:00:12.268Z,74.30
2018-01-23T22:02:40.726Z,74.30
2018-01-23T22:05:09.206Z,74.30
2018-01-23T22:07:37.588Z,74.50
2018-01-23T22:10:05.947Z,75.00
2018-01-23T22:12:35.121Z,75.70
2018-01-23T22:15:03.635Z,75.60
2018-01-23T22:17:31.993Z,75.70
2018-01-23T22:20:00.374Z,75.80
2018-01-23T22:22:29.626Z,75.90
2018-01-23T22:24:58.382Z,75.80
2018-01-23T22:27:26.774Z,75.80
2018-01-23T22:29:55.136Z,75.90
2018-01-23T22:32:23.592Z,75.80
2018-01-23T22:34:52.163Z,75.80
2018-01-23T22:37:20.804Z,75.60
2018-01-23T22:39:49.173Z,75.60
2018-01-23T22:42:17.541Z,75.80
2018-01-23T22:44:45.973Z,76.10
2018-01-23T22:47:15.083Z,76.30
2018-01-23T22:49:43.600Z,76.30
2018-01-23T22:52:11.964Z,76.70
2018-01-23T22:54:41.093Z,76.20
2018-01-23T22:57:09.474Z,76.20
2018-01-23T22:59:37.841Z,76.30
2018-01-23T23:02:06.643Z,76.40
2018-01-23T23:04:34.996Z,76.40
2018-01-23T23:07:03.365Z,76.40
2018-01-23T23:09:31.745Z,76.40
2018-01-23T23:12:00.909Z,76.70
2018-01-23T23:14:29.305Z,76.70
2018-01-23T23:16:58.432Z,77.30
2018-01-23T23:19:26.788Z,77.30
2018-01-23T23:21:56.665Z,77.00
2018-01-23T23:24:25.018Z,77.00
2018-01-23T23:26:53.588Z,77.10
2018-01-23T23:29:21.937Z,76.90
2018-01-23T23:31:50.307Z,76.80
2018-01-23T23:34:19.466Z,75.90
2018-01-23T23:36:47.821Z,75.90
2018-01-23T23:39:16.174Z,76.00
2018-01-23T23:41:44.566Z,76.10
2018-01-23T23:44:12.933Z,76.00
2018-01-23T23:46:42.110Z,75.70
2018-01-23T23:49:10.639Z,75.70
2018-01-23T23:51:38.997Z,75.70
2018-01-23T23:54:07.383Z,75.60
2018-01-23T23:56:36.626Z,75.70
2018-01-23T23:59:05.805Z,76.00
